Time;durP1;ratioP1;P1;durP2;ratioP2;P2;SDS_P1;SDS_P2;PMS_P1;PMS_P2;Temp;Humidity;BMP_temperature;BMP_pressure;BME280_temperature;BME280_humidity;BME280_pressure;Samples;Min_cycle;Max_cycle;Signal;HPM_P1;HPM_P2
2023/11/13 00:01:14;;;;;;;6.07;2.80;;;8.40;99.90;;;;;;4953052;28;87147;-81
2023/11/13 00:03:40;;;;;;;4.50;2.90;;;8.40;99.90;;;;;;4953824;28;85798;-80
2023/11/13 00:06:06;;;;;;;5.32;2.92;;;8.40;99.90;;;;;;4951631;28;85923;-79
2023/11/13 00:08:32;;;;;;;5.97;3.22;;;8.40;99.90;;;;;;4951501;28;88751;-81
2023/11/13 00:10:58;;;;;;;7.03;2.97;;;8.40;99.90;;;;;;4931675;28;88706;-79
2023/11/13 00:13:23;;;;;;;5.20;3.20;;;8.40;99.90;;;;;;4944428;28;86137;-80
2023/11/13 00:15:49;;;;;;;6.70;3.10;;;8.40;99.90;;;;;;4939402;28;87105;-79
2023/11/13 00:18:15;;;;;;;5.40;3.25;;;8.40;99.90;;;;;;4938880;28;86782;-79
2023/11/13 00:20:41;;;;;;;5.30;3.15;;;8.40;99.90;;;;;;4938474;28;85837;-80
2023/11/13 00:23:06;;;;;;;6.13;2.78;;;8.50;99.90;;;;;;4916391;28;85609;-81
2023/11/13 00:25:32;;;;;;;4.70;3.00;;;8.50;99.90;;;;;;4921267;28;87122;-81
2023/11/13 00:28:01;;;;;;;6.60;3.13;;;8.50;99.90;;;;;;4960448;28;89964;-82
2023/11/13 00:30:26;;;;;;;5.07;3.28;;;8.50;99.90;;;;;;4931232;28;89276;-81
2023/11/13 00:32:52;;;;;;;5.80;3.28;;;8.50;99.90;;;;;;4942900;28;86113;-81
2023/11/13 00:35:17;;;;;;;8.65;3.50;;;8.50;99.90;;;;;;4939596;28;85989;-80
2023/11/13 00:37:43;;;;;;;6.30;3.67;;;8.50;99.90;;;;;;4920099;28;89901;-81
2023/11/13 00:40:10;;;;;;;7.55;4.05;;;8.50;99.90;;;;;;4937838;28;87056;-79
2023/11/13 00:42:35;;;;;;;6.43;3.42;;;8.50;99.90;;;;;;4935546;28;86110;-81
2023/11/13 00:45:01;;;;;;;6.80;3.40;;;8.50;99.90;;;;;;4931993;28;88150;-82
2023/11/13 00:47:29;;;;;;;5.78;3.50;;;8.50;99.90;;;;;;4916043;28;89508;-80
2023/11/13 00:49:57;;;;;;;5.55;3.58;;;8.50;99.90;;;;;;4936076;28;86899;-82
2023/11/13 00:52:23;;;;;;;6.93;3.70;;;8.50;99.90;;;;;;4935423;28;86337;-81
2023/11/13 00:54:48;;;;;;;7.18;3.50;;;8.50;99.90;;;;;;4910040;28;86762;-80
2023/11/13 00:57:14;;;;;;;9.95;3.78;;;8.40;99.90;;;;;;4907037;28;91058;-79
2023/11/13 00:59:39;;;;;;;7.05;3.65;;;8.40;99.90;;;;;;4933768;28;86955;-80
2023/11/13 01:02:05;;;;;;;8.23;4.22;;;8.40;99.90;;;;;;4931413;28;86497;-79
2023/11/13 01:04:31;;;;;;;9.32;5.40;;;8.40;99.90;;;;;;4933228;28;85852;-80
2023/11/13 01:06:57;;;;;;;9.10;4.55;;;8.40;99.90;;;;;;4934677;28;88553;-81
2023/11/13 01:09:23;;;;;;;8.68;4.35;;;8.40;99.90;;;;;;4936430;28;86429;-80
2023/11/13 01:11:50;;;;;;;7.20;4.47;;;8.30;99.90;;;;;;4917950;28;86612;-80
2023/11/13 01:14:16;;;;;;;8.82;4.85;;;8.30;99.90;;;;;;4935987;28;86750;-80
2023/11/13 01:16:42;;;;;;;9.75;5.32;;;8.30;99.90;;;;;;4918227;28;90533;-80
2023/11/13 01:19:07;;;;;;;9.60;4.30;;;8.30;99.90;;;;;;4934524;28;86377;-80
2023/11/13 01:21:33;;;;;;;7.28;4.70;;;8.30;99.90;;;;;;4933416;28;86488;-80
2023/11/13 01:23:59;;;;;;;11.10;5.15;;;8.30;99.90;;;;;;4915187;28;87040;-80
2023/11/13 01:26:25;;;;;;;8.48;4.82;;;8.40;99.90;;;;;;4931769;28;87068;-80
2023/11/13 01:28:53;;;;;;;8.40;4.63;;;8.40;99.90;;;;;;4935282;28;86176;-79
2023/11/13 01:31:18;;;;;;;10.32;4.60;;;8.40;99.90;;;;;;4916116;28;86424;-80
2023/11/13 01:33:44;;;;;;;10.65;4.85;;;8.40;99.90;;;;;;4937097;28;86270;-80
2023/11/13 01:36:10;;;;;;;9.13;4.90;;;8.40;99.90;;;;;;4938656;28;86023;-80
2023/11/13 01:38:35;;;;;;;7.25;4.40;;;8.40;99.90;;;;;;4935508;28;86564;-80
2023/11/13 01:41:01;;;;;;;10.18;4.57;;;8.50;99.90;;;;;;4919442;28;86143;-80
2023/11/13 01:43:26;;;;;;;8.57;4.22;;;8.50;99.90;;;;;;4913560;28;85913;-80
2023/11/13 01:45:54;;;;;;;9.50;4.28;;;8.50;99.90;;;;;;4921900;28;88543;-80
2023/11/13 01:48:21;;;;;;;6.60;4.25;;;8.60;99.90;;;;;;4920326;28;87122;-79
2023/11/13 01:50:48;;;;;;;9.82;4.70;;;8.60;99.90;;;;;;4935939;28;86323;-79
2023/11/13 01:53:18;;;;;;;8.65;4.35;;;8.60;99.90;;;;;;4926622;28;86227;-79
2023/11/13 01:55:48;;;;;;;13.57;5.60;;;8.60;99.90;;;;;;4915400;28;90586;-79
2023/11/13 01:58:15;;;;;;;10.48;4.30;;;8.60;99.90;;;;;;4940181;28;85818;-79
2023/11/13 02:00:41;;;;;;;11.25;4.78;;;8.60;99.90;;;;;;4937672;28;85888;-80
2023/11/13 02:03:15;;;;;;;9.70;4.70;;;8.60;99.90;;;;;;4919897;28;86646;-79
2023/11/13 02:05:43;;;;;;;9.73;5.00;;;8.60;99.90;;;;;;4934745;28;86986;-79
2023/11/13 02:08:15;;;;;;;11.18;5.03;;;8.60;99.90;;;;;;4936597;28;87016;-80
2023/11/13 02:10:41;;;;;;;10.48;4.75;;;8.60;99.90;;;;;;4914661;28;86383;-79
2023/11/13 02:13:10;;;;;;;8.45;4.65;;;8.60;99.90;;;;;;4933073;28;86277;-79
2023/11/13 02:15:37;;;;;;;8.95;4.72;;;8.60;99.90;;;;;;4912200;28;90037;-79
2023/11/13 02:18:04;;;;;;;10.57;4.40;;;8.60;99.90;;;;;;4933559;28;87412;-80
2023/11/13 02:20:31;;;;;;;9.63;4.85;;;8.70;99.90;;;;;;4915837;28;87308;-79
2023/11/13 02:22:57;;;;;;;10.88;4.72;;;8.70;99.90;;;;;;4915949;28;86455;-79
2023/11/13 02:25:24;;;;;;;10.98;4.68;;;8.70;99.90;;;;;;4917182;28;86431;-79
2023/11/13 02:27:55;;;;;;;10.18;4.38;;;8.70;99.90;;;;;;4914468;28;89121;-80
2023/11/13 02:30:20;;;;;;;7.88;4.80;;;8.70;99.90;;;;;;4932257;28;85780;-79
2023/11/13 02:32:48;;;;;;;12.98;4.00;;;8.80;99.90;;;;;;4918903;28;86284;-79
2023/11/13 02:35:14;;;;;;;8.45;4.30;;;8.80;99.90;;;;;;4933023;28;87793;-79
2023/11/13 02:37:41;;;;;;;8.60;3.80;;;8.80;99.90;;;;;;4933720;28;85931;-79
2023/11/13 02:40:11;;;;;;;11.60;4.22;;;8.80;99.90;;;;;;4931458;28;86567;-79
2023/11/13 02:42:40;;;;;;;6.22;3.72;;;8.90;99.90;;;;;;4915043;28;86331;-79
2023/11/13 02:45:07;;;;;;;9.05;3.78;;;8.90;99.90;;;;;;4914026;28;90248;-78
2023/11/13 02:47:33;;;;;;;6.70;3.03;;;9.00;99.90;;;;;;4914881;28;90217;-80
2023/11/13 02:49:59;;;;;;;7.90;3.30;;;9.10;99.90;;;;;;4932538;28;85834;-79
2023/11/13 02:52:25;;;;;;;6.38;3.20;;;9.10;99.90;;;;;;4915595;28;85885;-79
2023/11/13 02:54:52;;;;;;;8.40;3.55;;;9.20;99.90;;;;;;4934715;28;87526;-79
2023/11/13 02:57:22;;;;;;;5.85;3.35;;;9.30;99.90;;;;;;4916130;28;89091;-79
2023/11/13 02:59:48;;;;;;;7.38;3.05;;;9.40;99.90;;;;;;4930554;28;85828;-80
2023/11/13 03:02:14;;;;;;;5.60;3.47;;;9.40;99.90;;;;;;4918887;28;86569;-79
2023/11/13 03:04:40;;;;;;;8.60;3.90;;;9.50;99.90;;;;;;4916970;28;89154;-80
2023/11/13 03:07:05;;;;;;;6.20;4.22;;;9.50;99.90;;;;;;4930285;28;87662;-80
2023/11/13 03:09:31;;;;;;;10.02;4.38;;;9.60;99.90;;;;;;4911778;28;86956;-81
2023/11/13 03:11:57;;;;;;;8.13;4.50;;;9.60;99.90;;;;;;4933510;28;85816;-80
2023/11/13 03:14:23;;;;;;;13.50;4.93;;;9.70;99.90;;;;;;4919709;28;88799;-79
2023/11/13 03:16:48;;;;;;;9.50;4.72;;;9.70;99.90;;;;;;4937632;28;90277;-80
2023/11/13 03:19:14;;;;;;;15.63;5.95;;;9.80;99.90;;;;;;4933986;28;86445;-80
2023/11/13 03:21:40;;;;;;;13.95;5.57;;;9.90;99.90;;;;;;4949546;28;86551;-79
2023/11/13 03:24:06;;;;;;;14.73;5.38;;;9.90;99.90;;;;;;4954197;28;87212;-79
2023/11/13 03:26:32;;;;;;;14.93;4.85;;;9.90;99.90;;;;;;4952743;28;86516;-80
2023/11/13 03:28:57;;;;;;;9.07;5.28;;;10.00;99.90;;;;;;4952774;28;86443;-80
2023/11/13 03:31:23;;;;;;;15.93;5.45;;;10.00;99.90;;;;;;4937759;28;86431;-81
2023/11/13 03:33:49;;;;;;;13.75;5.55;;;10.10;99.90;;;;;;4930850;28;89907;-80
2023/11/13 03:36:14;;;;;;;11.73;5.20;;;10.10;99.90;;;;;;4934624;28;86678;-80
2023/11/13 03:38:40;;;;;;;13.15;5.35;;;10.10;99.90;;;;;;4930810;28;86319;-82
2023/11/13 03:41:06;;;;;;;16.95;5.32;;;10.20;99.90;;;;;;4935843;28;86369;-80
2023/11/13 03:43:32;;;;;;;17.48;5.45;;;10.20;99.90;;;;;;4931865;28;86911;-80
2023/11/13 03:45:58;;;;;;;19.33;5.32;;;10.30;99.90;;;;;;4930239;28;86524;-79
2023/11/13 03:48:24;;;;;;;18.77;5.38;;;10.30;99.90;;;;;;4933728;28;85834;-80
2023/11/13 03:50:49;;;;;;;16.25;5.47;;;10.30;99.90;;;;;;4935777;28;86079;-79
2023/11/13 03:53:15;;;;;;;26.05;5.30;;;10.30;99.90;;;;;;4919199;28;90873;-80
2023/11/13 03:55:41;;;;;;;27.77;5.43;;;10.30;99.90;;;;;;4934488;28;90184;-79
2023/11/13 03:58:08;;;;;;;18.90;5.28;;;10.40;99.90;;;;;;4939042;28;86376;-80
2023/11/13 04:00:34;;;;;;;21.13;5.28;;;10.40;99.90;;;;;;4936510;28;86156;-80
2023/11/13 04:03:00;;;;;;;15.60;4.93;;;10.50;99.90;;;;;;4936945;28;89902;-80
2023/11/13 04:05:26;;;;;;;16.73;5.35;;;10.50;99.90;;;;;;4948070;28;89655;-80
2023/11/13 04:07:52;;;;;;;25.98;5.63;;;10.50;99.90;;;;;;4919135;28;86098;-79
2023/11/13 04:10:18;;;;;;;21.17;5.10;;;10.50;99.90;;;;;;4948343;28;85802;-80
2023/11/13 04:12:44;;;;;;;20.42;5.35;;;10.50;99.90;;;;;;4936305;28;86410;-80
2023/11/13 04:15:10;;;;;;;33.00;5.70;;;10.50;99.90;;;;;;4929461;28;86156;-80
2023/11/13 04:17:36;;;;;;;30.10;5.88;;;10.50;99.90;;;;;;4925532;28;86201;-79
2023/11/13 04:20:12;;;;;;;23.33;4.95;;;10.50;99.90;;;;;;4925039;28;86433;-81
2023/11/13 04:22:44;;;;;;;28.23;5.65;;;10.60;99.90;;;;;;4930102;28;86267;-80
2023/11/13 04:25:10;;;;;;;21.98;4.43;;;10.60;99.90;;;;;;4939106;28;87086;-83
2023/11/13 04:27:35;;;;;;;26.10;5.40;;;10.60;99.90;;;;;;4932764;28;86547;-80
2023/11/13 04:30:01;;;;;;;21.60;5.30;;;10.70;99.90;;;;;;4934047;28;86656;-80
2023/11/13 04:32:27;;;;;;;24.90;5.30;;;10.70;99.90;;;;;;4916185;28;91220;-80
2023/11/13 04:34:52;;;;;;;23.63;6.63;;;10.70;99.90;;;;;;4926423;28;87232;-80
2023/11/13 04:37:18;;;;;;;22.73;4.55;;;10.70;99.90;;;;;;4928532;28;86040;-79
2023/11/13 04:39:44;;;;;;;33.13;6.40;;;10.80;99.90;;;;;;4916425;28;86390;-80
2023/11/13 04:42:10;;;;;;;27.95;5.57;;;10.80;99.90;;;;;;4916830;28;89163;-80
2023/11/13 04:44:36;;;;;;;26.38;4.90;;;10.80;99.90;;;;;;4920426;28;89583;-80
2023/11/13 04:47:03;;;;;;;31.85;5.47;;;10.80;99.90;;;;;;4918549;28;86426;-79
2023/11/13 04:49:29;;;;;;;32.50;4.90;;;10.80;99.90;;;;;;4914550;28;86077;-81
2023/11/13 04:51:55;;;;;;;35.92;5.00;;;10.80;99.90;;;;;;4931258;28;90691;-78
2023/11/13 04:54:21;;;;;;;23.13;4.32;;;10.80;99.90;;;;;;4934540;28;90061;-79
2023/11/13 04:56:46;;;;;;;40.17;6.90;;;10.80;99.90;;;;;;4918088;28;89287;-79
2023/11/13 04:59:12;;;;;;;35.97;5.18;;;10.80;99.90;;;;;;4937906;28;85725;-80
2023/11/13 05:01:39;;;;;;;31.08;5.00;;;10.80;99.90;;;;;;4914283;28;91787;-79
2023/11/13 05:04:08;;;;;;;26.52;5.35;;;10.80;99.90;;;;;;4911679;28;89201;-78
2023/11/13 05:06:35;;;;;;;41.17;5.78;;;10.80;99.90;;;;;;4922663;28;87015;-80
2023/11/13 05:09:04;;;;;;;38.92;4.93;;;10.90;99.90;;;;;;4920871;28;86453;-79
2023/11/13 05:11:30;;;;;;;34.30;5.28;;;10.90;99.90;;;;;;4935039;28;87464;-80
2023/11/13 05:14:11;;;;;;;30.90;4.63;;;10.90;99.90;;;;;;4914298;28;88632;-77
2023/11/13 05:16:37;;;;;;;30.50;4.32;;;10.90;99.90;;;;;;4925904;28;86640;-78
2023/11/13 05:19:03;;;;;;;30.15;4.50;;;10.90;99.90;;;;;;4935733;28;86297;-79
2023/11/13 05:21:33;;;;;;;31.17;5.75;;;10.90;99.90;;;;;;4923701;28;88366;-79
2023/11/13 05:23:59;;;;;;;32.92;5.47;;;10.90;99.90;;;;;;4923303;28;89632;-79
2023/11/13 05:26:25;;;;;;;33.90;4.80;;;11.00;99.90;;;;;;4929096;28;86589;-79
2023/11/13 05:28:51;;;;;;;32.25;6.00;;;11.00;99.90;;;;;;4928819;28;85960;-79
2023/11/13 05:31:17;;;;;;;39.45;5.43;;;11.00;99.90;;;;;;4943037;28;87034;-80
2023/11/13 05:33:50;;;;;;;27.00;6.03;;;11.00;99.90;;;;;;4943647;28;86459;-79
2023/11/13 05:36:16;;;;;;;32.08;5.88;;;11.00;99.90;;;;;;4944855;28;87293;-79
2023/11/13 05:38:44;;;;;;;35.03;4.60;;;11.00;99.90;;;;;;4944329;28;85844;-79
2023/11/13 05:41:10;;;;;;;31.48;5.40;;;11.00;99.90;;;;;;4939481;28;90367;-78
2023/11/13 05:43:36;;;;;;;25.92;5.13;;;11.00;99.90;;;;;;4925642;28;88022;-78
2023/11/13 05:46:03;;;;;;;22.10;4.40;;;11.00;99.90;;;;;;4925751;28;85963;-79
2023/11/13 05:48:32;;;;;;;30.25;3.95;;;11.00;99.90;;;;;;4932836;28;85949;-79
2023/11/13 05:50:58;;;;;;;26.63;4.38;;;11.00;99.90;;;;;;4940994;28;90794;-79
2023/11/13 05:53:25;;;;;;;23.40;3.70;;;11.00;99.90;;;;;;4941376;28;89821;-79
2023/11/13 05:55:51;;;;;;;30.08;3.28;;;11.00;99.90;;;;;;4940788;28;86636;-79
2023/11/13 05:58:16;;;;;;;30.00;5.10;;;11.00;99.90;;;;;;4941689;28;85833;-79
2023/11/13 06:00:43;;;;;;;30.17;3.63;;;11.00;99.90;;;;;;4939381;28;90931;-79
2023/11/13 06:03:17;;;;;;;23.05;3.20;;;11.00;99.90;;;;;;4941162;28;87344;-78
2023/11/13 06:05:43;;;;;;;29.05;3.50;;;11.00;99.90;;;;;;4938557;28;85788;-79
2023/11/13 06:08:08;;;;;;;22.38;2.75;;;11.00;99.90;;;;;;4942340;28;85994;-79
2023/11/13 06:10:34;;;;;;;21.48;3.05;;;11.00;99.90;;;;;;4941596;28;90539;-78
2023/11/13 06:13:08;;;;;;;25.13;4.47;;;11.00;99.90;;;;;;4942055;28;86550;-79
2023/11/13 06:15:37;;;;;;;23.17;4.20;;;11.00;99.90;;;;;;4938477;28;86617;-79
2023/11/13 06:18:03;;;;;;;24.27;3.42;;;10.90;99.90;;;;;;4937797;28;85887;-78
2023/11/13 06:20:30;;;;;;;30.30;3.50;;;11.00;99.90;;;;;;4938987;28;86980;-78
2023/11/13 06:22:55;;;;;;;23.65;3.58;;;10.90;99.90;;;;;;4937547;28;89639;-78
2023/11/13 06:25:21;;;;;;;28.67;4.40;;;11.00;99.90;;;;;;4939865;28;86506;-78
2023/11/13 06:27:46;;;;;;;30.85;4.80;;;10.90;99.90;;;;;;4939444;28;86473;-79
2023/11/13 06:30:13;;;;;;;25.85;5.20;;;10.90;99.90;;;;;;4942525;28;87543;-78
2023/11/13 06:32:39;;;;;;;29.88;4.40;;;10.90;99.90;;;;;;4939907;28;88056;-78
2023/11/13 06:35:06;;;;;;;22.33;3.88;;;10.90;99.90;;;;;;4941537;28;85815;-79
2023/11/13 06:37:41;;;;;;;26.08;4.47;;;10.90;99.90;;;;;;4943382;28;85931;-79
2023/11/13 06:40:08;;;;;;;23.98;3.60;;;10.90;99.90;;;;;;4941438;28;87412;-79
2023/11/13 06:42:33;;;;;;;21.70;3.53;;;10.90;99.90;;;;;;4942166;28;90124;-78
2023/11/13 06:45:28;;;;;;;13.77;3.20;;;10.90;99.90;;;;;;4941084;28;86678;-79
2023/11/13 06:47:54;;;;;;;20.52;2.90;;;10.90;99.90;;;;;;4951526;28;86238;-78
2023/11/13 06:50:32;;;;;;;27.27;3.35;;;10.90;99.90;;;;;;4936344;28;86850;-79
2023/11/13 06:52:58;;;;;;;15.93;2.55;;;10.90;99.90;;;;;;4952728;28;89808;-78
2023/11/13 06:55:24;;;;;;;20.02;4.22;;;10.90;99.90;;;;;;4935630;28;86460;-79
2023/11/13 06:58:11;;;;;;;14.85;2.65;;;10.80;99.90;;;;;;4940011;28;85813;-78
2023/11/13 07:00:37;;;;;;;23.02;3.25;;;10.80;99.90;;;;;;4932674;28;91552;-80
2023/11/13 07:03:04;;;;;;;13.52;2.33;;;10.80;99.90;;;;;;4950858;28;89893;-78
2023/11/13 07:05:33;;;;;;;13.90;2.10;;;10.80;99.90;;;;;;4939328;28;86201;-78
2023/11/13 07:07:59;;;;;;;11.35;2.35;;;10.80;99.90;;;;;;4952663;28;86740;-79
2023/11/13 07:10:26;;;;;;;15.43;2.38;;;10.70;99.90;;;;;;4937772;28;87506;-79
2023/11/13 07:12:52;;;;;;;13.02;2.28;;;10.80;99.90;;;;;;4933834;28;86625;-78
2023/11/13 07:15:23;;;;;;;12.30;2.45;;;10.80;99.90;;;;;;4940237;28;86443;-79
2023/11/13 07:17:49;;;;;;;11.70;2.90;;;10.80;99.90;;;;;;4940793;28;86310;-78
2023/11/13 07:20:27;;;;;;;15.77;2.58;;;10.80;99.90;;;;;;4929696;28;87149;-80
2023/11/13 07:22:53;;;;;;;13.70;3.10;;;10.70;99.90;;;;;;4943823;28;86941;-79
2023/11/13 07:25:35;;;;;;;15.77;2.88;;;10.80;99.90;;;;;;4911411;28;85854;-78
2023/11/13 07:28:00;;;;;;;11.20;1.90;;;10.70;99.90;;;;;;4931808;28;85758;-79
2023/11/13 07:30:33;;;;;;;19.23;2.80;;;10.80;99.90;;;;;;4957800;28;90778;-79
2023/11/13 07:32:59;;;;;;;15.18;2.47;;;10.80;99.90;;;;;;4942936;28;89042;-79
2023/11/13 07:35:38;;;;;;;16.65;2.92;;;10.80;99.90;;;;;;4942854;28;85901;-80
2023/11/13 07:38:07;;;;;;;22.33;2.38;;;10.70;99.90;;;;;;4957880;28;85963;-81
2023/11/13 07:40:46;;;;;;;12.45;1.90;;;10.80;99.90;;;;;;4943526;28;87013;-79
2023/11/13 07:43:12;;;;;;;17.85;2.78;;;10.80;99.90;;;;;;4930451;28;90379;-79
2023/11/13 07:45:50;;;;;;;15.40;2.78;;;10.80;99.90;;;;;;4944498;28;85780;-78
2023/11/13 07:48:16;;;;;;;21.73;2.50;;;10.80;99.90;;;;;;4933525;28;85932;-79
2023/11/13 07:50:42;;;;;;;12.63;2.08;;;10.70;99.90;;;;;;4925780;28;90492;-78
2023/11/13 07:53:08;;;;;;;14.80;2.17;;;10.70;99.90;;;;;;4933389;28;89317;-78
2023/11/13 07:55:43;;;;;;;18.17;2.50;;;10.70;99.90;;;;;;4923349;28;86013;-77
2023/11/13 07:58:13;;;;;;;13.52;2.30;;;10.70;99.90;;;;;;4905437;28;86003;-78
2023/11/13 08:00:40;;;;;;;12.88;1.90;;;10.70;99.90;;;;;;4922916;28;86565;-78
2023/11/13 08:17:34;;;;;;;20.33;1.70;;;10.80;99.90;;;;;;4973159;28;111524;-80
2023/11/13 08:20:02;;;;;;;12.70;2.40;;;10.80;99.90;;;;;;4966739;28;86083;-78
2023/11/13 08:22:29;;;;;;;14.45;2.22;;;10.70;99.90;;;;;;4963086;28;90337;-78
2023/11/13 08:24:54;;;;;;;13.48;2.33;;;10.70;99.90;;;;;;4962767;28;89242;-79
2023/11/13 08:27:22;;;;;;;17.02;2.08;;;10.70;99.90;;;;;;4981809;28;85766;-78
2023/11/13 08:29:49;;;;;;;13.23;2.65;;;10.70;99.90;;;;;;4982279;28;85973;-78
2023/11/13 08:32:17;;;;;;;11.57;1.92;;;10.70;99.90;;;;;;4983545;28;87479;-79
2023/11/13 08:34:42;;;;;;;11.55;1.77;;;10.70;99.90;;;;;;4982476;28;85843;-78
2023/11/13 08:37:08;;;;;;;9.48;1.65;;;10.70;99.90;;;;;;4966124;28;85785;-78
2023/11/13 08:39:34;;;;;;;17.60;1.85;;;10.70;99.90;;;;;;4982031;28;85870;-78
2023/11/13 08:42:05;;;;;;;7.88;1.50;;;10.70;99.90;;;;;;4963943;28;90393;-78
2023/11/13 08:44:31;;;;;;;5.47;1.10;;;10.80;99.90;;;;;;4982074;28;88280;-78
2023/11/13 08:46:57;;;;;;;11.77;1.70;;;10.80;99.90;;;;;;4963135;28;90285;-79
2023/11/13 08:49:22;;;;;;;5.15;1.05;;;10.80;99.90;;;;;;4979449;28;87070;-78
2023/11/13 08:51:48;;;;;;;9.95;1.30;;;10.80;99.90;;;;;;4973280;28;87071;-78
2023/11/13 08:54:14;;;;;;;5.68;1.90;;;10.90;99.90;;;;;;4960241;28;92719;-78
2023/11/13 08:56:55;;;;;;;5.90;1.13;;;10.90;99.90;;;;;;4963777;28;91161;-78
2023/11/13 08:59:22;;;;;;;8.15;1.00;;;11.00;99.90;;;;;;4971052;28;87117;-78
2023/11/13 09:05:28;;;;;;;7.93;2.60;;;11.10;99.90;;;;;;4980349;28;87074;-78
2023/11/13 09:11:19;;;;;;;6.10;1.52;;;11.20;99.90;;;;;;4942218;28;87226;-78
2023/11/13 09:14:34;;;;;;;6.32;1.20;;;11.30;99.90;;;;;;4973907;28;87496;-79
2023/11/13 09:40:03;;;;;;;7.45;1.88;;;11.90;99.90;;;;;;4976809;28;90980;-78
2023/11/13 09:42:33;;;;;;;8.85;1.95;;;12.00;99.90;;;;;;4979807;28;87910;-79
2023/11/13 09:45:24;;;;;;;13.63;2.00;;;12.10;99.90;;;;;;4985434;28;87973;-80
2023/11/13 09:48:07;;;;;;;12.55;2.00;;;12.20;99.90;;;;;;4985096;28;87125;-79
2023/11/13 09:50:34;;;;;;;7.82;2.08;;;12.30;99.90;;;;;;4965713;28;89366;-80
2023/11/13 09:53:02;;;;;;;11.70;2.22;;;12.40;99.90;;;;;;4981992;28;88893;-80
2023/11/13 09:55:33;;;;;;;7.90;1.73;;;12.40;99.90;;;;;;4963106;28;92275;-79
2023/11/13 09:58:00;;;;;;;13.93;1.80;;;12.50;99.90;;;;;;4956973;28;87094;-80
2023/11/13 10:00:32;;;;;;;11.68;2.08;;;12.60;99.90;;;;;;4972741;28;90351;-80
2023/11/13 10:15:55;;;;;;;10.07;1.60;;;13.10;99.90;;;;;;5399876;22;89144;-81
2023/11/13 10:18:26;;;;;;;7.78;2.05;;;13.10;99.90;;;;;;5002244;28;88294;-79
2023/11/13 10:23:40;;;;;;;11.90;2.28;;;13.30;99.90;;;;;;5165297;22;88759;-81
2023/11/13 10:26:14;;;;;;;7.53;2.08;;;13.40;99.90;;;;;;4980695;28;91060;-79
2023/11/13 10:28:40;;;;;;;11.95;3.17;;;13.50;99.90;;;;;;5558242;22;88203;-79
2023/11/13 10:36:17;;;;;;;11.18;3.22;;;13.70;99.90;;;;;;5119148;22;87493;-79
2023/11/13 11:25:20;;;;;;;12.18;2.67;;;14.30;99.90;;;;;;4987343;28;94794;-80
2023/11/13 11:27:46;;;;;;;13.70;2.47;;;14.40;99.90;;;;;;4990666;28;89372;-79
2023/11/13 11:30:37;;;;;;;7.55;2.20;;;14.40;99.90;;;;;;4993897;28;88553;-79
2023/11/13 11:33:09;;;;;;;9.05;2.10;;;14.40;99.90;;;;;;4986693;28;87931;-79
2023/11/13 11:36:00;;;;;;;10.52;2.20;;;14.30;99.90;;;;;;4980598;28;87608;-78
2023/11/13 11:38:26;;;;;;;9.68;2.20;;;14.40;99.90;;;;;;4994753;28;87106;-79
2023/11/13 11:41:00;;;;;;;6.88;1.95;;;14.30;99.90;;;;;;4995090;28;89102;-79
2023/11/13 11:43:30;;;;;;;9.82;1.95;;;14.40;99.90;;;;;;4994115;28;88472;-78
2023/11/13 11:46:13;;;;;;;9.45;2.63;;;14.40;99.90;;;;;;4978069;28;87187;-77
2023/11/13 11:48:39;;;;;;;10.73;1.73;;;14.40;99.90;;;;;;4990995;28;90448;-79
2023/11/13 12:11:37;;;;;;;20.67;2.65;;;14.70;99.90;;;;;;5000905;28;87552;-95
2023/11/13 12:14:03;;;;;;;6.05;1.13;;;14.70;99.90;;;;;;4981039;28;89412;-95
2023/11/13 12:16:29;;;;;;;6.65;1.60;;;14.70;99.90;;;;;;4987440;28;89020;-95
2023/11/13 12:18:56;;;;;;;10.18;2.22;;;14.80;99.90;;;;;;4987953;28;88137;-95
2023/11/13 12:26:33;;;;;;;6.05;2.30;;;14.80;99.90;;;;;;5933412;22;89037;-76
2023/11/13 12:59:56;;;;;;;6.43;1.73;;;14.80;99.90;;;;;;5132979;23;87941;-94
2023/11/13 13:13:29;;;;;;;3.55;1.30;;;14.80;99.90;;;;;;4982054;28;87713;-96
2023/11/13 13:16:03;;;;;;;2.63;1.00;;;14.90;99.90;;;;;;4963250;28;87884;-93
2023/11/13 13:18:30;;;;;;;5.10;1.02;;;14.90;99.90;;;;;;4962528;28;89317;-93
2023/11/13 13:20:57;;;;;;;4.15;1.23;;;14.90;99.90;;;;;;4962234;28;90049;-93
2023/11/13 13:23:23;;;;;;;3.03;1.08;;;14.90;99.90;;;;;;4962521;28;88972;-93
2023/11/13 13:25:49;;;;;;;3.38;0.95;;;15.00;99.90;;;;;;4963388;28;87514;-91
2023/11/13 13:28:18;;;;;;;1.90;0.88;;;15.00;99.90;;;;;;4943472;28;89498;-92
2023/11/13 13:33:36;;;;;;;0.93;0.70;;;15.00;99.90;;;;;;4957319;28;87941;-92
2023/11/13 13:42:19;;;;;;;4.55;0.70;;;15.10;99.90;;;;;;4964757;28;87296;-94
2023/11/13 13:45:03;;;;;;;3.35;0.70;;;15.10;99.90;;;;;;4962582;28;87882;-94
2023/11/13 13:47:51;;;;;;;1.40;0.50;;;15.10;99.90;;;;;;4958042;28;87767;-93
2023/11/13 13:57:11;;;;;;;2.28;0.55;;;15.10;99.90;;;;;;5668781;23;87579;-93
2023/11/13 13:59:43;;;;;;;1.20;0.45;;;15.20;99.90;;;;;;4965455;28;88961;-95
2023/11/13 14:02:25;;;;;;;1.05;0.50;;;15.20;99.90;;;;;;4962814;28;89248;-93
2023/11/13 14:05:15;;;;;;;2.65;0.63;;;15.20;99.90;;;;;;4979071;28;89127;-91
2023/11/13 14:13:29;;;;;;;0.50;0.20;;;15.10;99.90;;;;;;6015058;22;88389;-78
2023/11/13 14:15:55;;;;;;;1.83;0.40;;;15.00;99.90;;;;;;5263635;22;88296;-78
2023/11/13 14:18:24;;;;;;;0.20;0.20;;;15.00;99.90;;;;;;4909344;28;91081;-80
2023/11/13 14:33:45;;;;;;;0.95;0.30;;;14.60;99.90;;;;;;5092348;22;88310;-78
2023/11/13 14:36:10;;;;;;;0.55;0.30;;;14.60;99.90;;;;;;4961743;28;88119;-79
2023/11/13 14:43:47;;;;;;;1.20;0.47;;;14.50;99.90;;;;;;5597876;22;88026;-79
2023/11/13 14:48:48;;;;;;;1.80;0.40;;;14.40;99.90;;;;;;5433164;22;89261;-78
2023/11/13 14:51:15;;;;;;;1.20;0.50;;;14.40;99.90;;;;;;4955739;28;88184;-77
2023/11/13 14:58:51;;;;;;;2.40;0.30;;;14.30;99.90;;;;;;5863380;22;88755;-78
2023/11/13 15:03:53;;;;;;;2.13;0.60;;;14.30;99.90;;;;;;5192177;22;88387;-78
2023/11/13 15:06:21;;;;;;;2.67;0.50;;;14.30;99.90;;;;;;4964945;28;89593;-77
2023/11/13 15:08:47;;;;;;;2.90;0.50;;;14.40;99.90;;;;;;4962837;28;89841;-77
2023/11/13 15:11:13;;;;;;;1.90;0.50;;;14.40;99.90;;;;;;4961128;28;88635;-78
2023/11/13 15:16:17;;;;;;;6.80;0.75;;;14.40;99.90;;;;;;5001747;23;88714;-78
2023/11/13 15:23:53;;;;;;;3.60;0.80;;;14.40;99.90;;;;;;6000613;22;89743;-77
2023/11/13 15:31:33;;;;;;;11.15;1.88;;;14.30;99.90;;;;;;5477767;22;88677;-78
2023/11/13 15:33:59;;;;;;;10.02;2.17;;;14.20;99.90;;;;;;4958117;28;88888;-78
2023/11/13 15:44:13;;;;;;;10.18;1.52;;;14.10;99.90;;;;;;5930202;22;88501;-78
2023/11/13 15:46:42;;;;;;;8.43;1.35;;;14.00;99.90;;;;;;4940240;28;88075;-77
2023/11/13 15:49:09;;;;;;;9.65;1.90;;;14.00;99.90;;;;;;4934272;28;87982;-77
2023/11/13 16:01:56;;;;;;;10.75;1.63;;;13.90;99.90;;;;;;5897754;23;88550;-81
2023/11/13 16:32:55;;;;;;;17.52;2.90;;;13.50;99.90;;;;;;4700407;22;88528;-79
2023/11/13 16:35:22;;;;;;;28.23;3.45;;;13.40;99.90;;;;;;4979685;28;87621;-78
2023/11/13 16:37:49;;;;;;;21.95;2.50;;;13.40;99.90;;;;;;4966012;28;90532;-79
2023/11/13 16:40:18;;;;;;;22.90;2.75;;;13.30;99.90;;;;;;4984565;28;87661;-79
2023/11/13 16:42:44;;;;;;;19.30;3.00;;;13.30;99.90;;;;;;4965508;28;87799;-79
2023/11/13 16:45:14;;;;;;;26.77;4.15;;;13.30;99.90;;;;;;4973823;28;88137;-79
2023/11/13 16:47:42;;;;;;;26.65;3.30;;;13.20;99.90;;;;;;4983666;28;87280;-79
2023/11/13 16:50:09;;;;;;;26.58;3.58;;;13.20;99.90;;;;;;4982967;28;86810;-78
2023/11/13 16:52:35;;;;;;;29.40;4.35;;;13.10;99.90;;;;;;4967455;28;88145;-79
2023/11/13 16:55:01;;;;;;;30.02;3.70;;;13.10;99.90;;;;;;4970427;28;88236;-78
2023/11/13 16:57:28;;;;;;;24.20;4.13;;;13.10;99.90;;;;;;4968567;28;90602;-79
2023/11/13 16:59:54;;;;;;;23.73;4.07;;;13.00;99.90;;;;;;4967401;28;90277;-81
2023/11/13 17:02:21;;;;;;;23.05;4.47;;;13.00;99.90;;;;;;4969743;28;87138;-80
2023/11/13 17:04:47;;;;;;;28.05;3.25;;;13.00;99.90;;;;;;4968913;28;89148;-79
2023/11/13 17:07:16;;;;;;;33.85;4.20;;;13.00;99.90;;;;;;4969514;28;89601;-77
2023/11/13 17:09:42;;;;;;;22.38;4.35;;;13.00;99.90;;;;;;4968630;28;89724;-79
2023/11/13 17:12:10;;;;;;;24.90;3.70;;;13.00;99.90;;;;;;4986872;28;90069;-77
2023/11/13 17:14:36;;;;;;;29.75;3.97;;;12.90;99.90;;;;;;4966208;28;89113;-80
2023/11/13 17:17:02;;;;;;;25.27;4.05;;;12.90;99.90;;;;;;4964207;28;89892;-79
2023/11/13 17:19:28;;;;;;;28.58;3.97;;;12.90;99.90;;;;;;4982394;28;87567;-79
2023/11/13 17:21:54;;;;;;;24.27;4.13;;;12.90;99.90;;;;;;4964881;28;88065;-81
2023/11/13 17:24:21;;;;;;;32.92;4.50;;;12.90;99.90;;;;;;4985965;28;87629;-80
2023/11/13 17:26:48;;;;;;;29.73;4.20;;;12.90;99.90;;;;;;4966205;28;91318;-79
2023/11/13 17:29:14;;;;;;;25.45;3.70;;;12.80;99.90;;;;;;4984323;28;87687;-80
2023/11/13 17:31:41;;;;;;;34.60;5.25;;;12.80;99.90;;;;;;4967295;28;87073;-79
2023/11/13 17:34:08;;;;;;;20.00;3.03;;;12.70;99.90;;;;;;4985958;28;87230;-79
2023/11/13 17:36:34;;;;;;;24.65;4.00;;;12.70;99.90;;;;;;4967791;28;90123;-79